Otter Lake, Michigan
Current Conditions -  °F | °C
As of 1:14 AM on Thursday 23 Oct 2014 (Local Time) from KD95 Reporting Station
Clear Clear  
Wind Chill: 31°   Ceiling: Unl
Heat Index: 31°   Visibility: 10mi
Dew Point: 31°   Wind: 0mph
Humidity: 99%   Direction: NA
Pressure: 30.29"   Gusts: NA
Location:  43.21°N, 83.45°W
Report Text: KD95 230514Z AUTO 00000KT 10SM CLR 00/M01 A3029 RMK AO2 T10051007
Loading
Personal Weather Stations






























Interactive Weather Map
Tropical Storm Tracking
New forecast layout! Learn more

10-Day Weather Forecast

Advertisements
Track Severe Weather on mobile